Time;durP1;ratioP1;P1;durP2;ratioP2;P2;SDS_P1;SDS_P2;PMS_P1;PMS_P2;Temp;Humidity;BMP_temperature;BMP_pressure;BME280_temperature;BME280_humidity;BME280_pressure;Samples;Min_cycle;Max_cycle;Signal;HPM_P1;HPM_P2
2022/06/06 00:00:46;;;;;;;1.98;1.65;;;16.10;99.90;;;;;;5020342;28;20018;-78
2022/06/06 00:03:14;;;;;;;3.53;1.60;;;15.90;99.90;;;;;;5017110;28;20022;-79
2022/06/06 00:05:44;;;;;;;1.75;1.52;;;16.20;99.90;;;;;;5016944;28;20021;-79
2022/06/06 00:08:14;;;;;;;2.85;2.03;;;15.90;99.90;;;;;;5008388;28;20056;-78
2022/06/06 00:10:41;;;;;;;2.58;1.85;;;15.90;99.90;;;;;;5017589;28;20487;-79
2022/06/06 00:13:08;;;;;;;3.13;1.90;;;16.10;99.90;;;;;;5021981;28;20025;-77
2022/06/06 00:15:34;;;;;;;1.80;1.70;;;16.10;99.90;;;;;;5014995;28;20029;-77
2022/06/06 00:18:00;;;;;;;1.55;1.45;;;16.10;99.90;;;;;;5014546;28;20615;-78
2022/06/06 00:20:26;;;;;;;2.80;1.63;;;16.00;99.90;;;;;;5015786;28;20075;-78
2022/06/06 00:22:52;;;;;;;3.67;1.83;;;15.90;99.90;;;;;;5016928;28;20060;-78
2022/06/06 00:25:18;;;;;;;3.47;2.00;;;15.70;99.90;;;;;;5014727;28;20037;-77
2022/06/06 00:27:43;;;;;;;2.42;1.60;;;15.50;99.90;;;;;;5015222;28;20017;-77
2022/06/06 00:30:09;;;;;;;3.03;2.00;;;15.90;99.90;;;;;;5017305;28;20033;-76
2022/06/06 00:35:20;;;;;;;2.47;1.67;;;15.50;99.90;;;;;;5010523;28;20056;-77
2022/06/06 00:37:47;;;;;;;4.32;1.73;;;15.70;99.90;;;;;;5014362;28;20014;-78
2022/06/06 00:40:14;;;;;;;2.08;1.70;;;15.80;99.90;;;;;;5012884;28;20041;-78
2022/06/06 00:42:41;;;;;;;2.42;1.75;;;15.70;99.90;;;;;;5013179;28;20391;-77
2022/06/06 00:45:30;;;;;;;4.68;2.17;;;15.80;99.90;;;;;;5014552;28;20046;-78
2022/06/06 00:48:16;;;;;;;3.15;1.80;;;15.90;99.90;;;;;;5016983;28;20017;-76
2022/06/06 00:50:56;;;;;;;3.75;1.83;;;15.90;99.90;;;;;;5008332;28;20029;-78
2022/06/06 00:53:33;;;;;;;1.85;1.58;;;16.00;99.90;;;;;;5015401;28;20472;-78
2022/06/06 00:56:07;;;;;;;3.40;1.80;;;16.00;99.90;;;;;;5015218;28;20021;-78
2022/06/06 00:58:35;;;;;;;2.92;2.00;;;15.80;99.90;;;;;;5014237;28;20018;-78
2022/06/06 01:01:01;;;;;;;2.25;1.95;;;15.90;99.90;;;;;;5013376;28;20502;-77
2022/06/06 01:03:29;;;;;;;2.13;1.85;;;15.90;99.90;;;;;;5014053;28;20034;-76
2022/06/06 01:05:58;;;;;;;2.85;1.90;;;15.90;99.90;;;;;;5018805;28;20039;-76
2022/06/06 01:08:24;;;;;;;4.70;1.75;;;15.80;99.90;;;;;;5011993;28;20033;-76
2022/06/06 01:10:49;;;;;;;3.55;2.13;;;15.70;99.90;;;;;;5011399;28;20113;-77
2022/06/06 01:13:17;;;;;;;3.05;1.73;;;15.70;99.90;;;;;;5016732;28;20109;-76
2022/06/06 01:16:04;;;;;;;2.60;2.00;;;15.60;99.90;;;;;;5010916;28;20049;-76
2022/06/06 01:18:59;;;;;;;2.65;1.80;;;15.60;99.90;;;;;;5011947;28;20080;-76
2022/06/06 01:21:46;;;;;;;2.30;2.10;;;15.70;99.90;;;;;;5014088;28;20113;-77
2022/06/06 01:24:34;;;;;;;2.33;1.80;;;15.40;99.90;;;;;;5017363;28;20668;-76
2022/06/06 01:27:19;;;;;;;2.58;1.88;;;15.50;99.90;;;;;;5018530;28;20030;-76
2022/06/06 01:29:49;;;;;;;2.80;2.17;;;15.60;99.90;;;;;;5020435;28;20029;-76
2022/06/06 01:32:20;;;;;;;3.15;2.17;;;15.50;99.90;;;;;;5023350;28;20072;-76
2022/06/06 01:34:51;;;;;;;2.65;2.20;;;15.60;99.90;;;;;;5024936;28;20025;-77
2022/06/06 01:37:32;;;;;;;3.78;2.05;;;15.60;99.90;;;;;;5007034;28;20113;-77
2022/06/06 01:40:00;;;;;;;4.18;2.15;;;15.70;99.90;;;;;;5034194;28;20077;-77
2022/06/06 01:42:59;;;;;;;2.30;2.10;;;15.80;99.90;;;;;;5022419;28;20456;-77
2022/06/06 01:45:28;;;;;;;5.88;1.90;;;15.70;99.90;;;;;;5014189;28;20116;-77
2022/06/06 01:48:01;;;;;;;3.45;1.90;;;15.80;99.90;;;;;;5018286;28;20029;-76
2022/06/06 01:50:29;;;;;;;3.80;2.33;;;15.70;99.90;;;;;;5021908;28;20519;-76
2022/06/06 01:52:59;;;;;;;3.05;2.20;;;15.70;99.90;;;;;;5025065;28;20025;-77
2022/06/06 01:55:26;;;;;;;4.25;2.30;;;15.40;99.90;;;;;;5019253;28;20079;-77
2022/06/06 01:57:54;;;;;;;3.13;2.47;;;15.10;99.90;;;;;;5027441;28;20115;-77
2022/06/06 02:00:20;;;;;;;3.25;2.60;;;14.90;99.90;;;;;;5020525;28;20018;-77
2022/06/06 02:02:46;;;;;;;4.03;2.72;;;15.00;99.90;;;;;;5018226;28;20036;-76
2022/06/06 02:05:13;;;;;;;2.80;2.38;;;14.90;99.90;;;;;;5020627;28;20030;-76
2022/06/06 02:07:40;;;;;;;3.97;2.80;;;14.90;99.90;;;;;;5025730;28;20026;-77
2022/06/06 02:10:09;;;;;;;4.10;3.03;;;14.80;99.90;;;;;;5021693;28;20042;-76
2022/06/06 02:12:37;;;;;;;3.78;2.67;;;14.70;99.90;;;;;;5017132;28;20029;-76
2022/06/06 02:15:04;;;;;;;5.47;3.13;;;14.60;99.90;;;;;;5023453;28;20361;-75
2022/06/06 02:17:30;;;;;;;3.88;2.67;;;14.70;99.90;;;;;;5014153;28;20438;-75
2022/06/06 02:19:55;;;;;;;3.42;2.78;;;15.00;99.90;;;;;;5022559;28;20057;-75
2022/06/06 02:22:22;;;;;;;4.07;2.60;;;15.10;99.90;;;;;;5031876;28;20607;-75
2022/06/06 02:24:47;;;;;;;3.40;2.80;;;15.10;99.90;;;;;;5034938;28;20025;-76
2022/06/06 02:27:13;;;;;;;4.70;3.20;;;15.20;99.90;;;;;;5017518;28;20376;-75
2022/06/06 02:29:39;;;;;;;6.13;2.88;;;15.30;99.90;;;;;;5025940;28;20068;-75
2022/06/06 02:32:08;;;;;;;4.93;3.08;;;15.20;99.90;;;;;;5028372;28;20022;-75
2022/06/06 02:34:34;;;;;;;4.15;3.78;;;15.10;99.90;;;;;;5016192;28;20053;-78
2022/06/06 02:36:59;;;;;;;4.15;3.22;;;15.00;99.90;;;;;;5029685;28;20026;-78
2022/06/06 02:39:25;;;;;;;3.45;3.13;;;14.70;99.90;;;;;;5027698;28;20033;-77
2022/06/06 02:41:51;;;;;;;3.50;3.20;;;14.50;99.90;;;;;;5022826;28;20040;-77
2022/06/06 02:44:16;;;;;;;5.25;3.67;;;14.30;99.90;;;;;;5023612;28;20523;-76
2022/06/06 02:46:42;;;;;;;5.00;3.85;;;14.30;99.90;;;;;;5028063;28;20511;-76
2022/06/06 02:49:08;;;;;;;6.03;4.30;;;14.20;99.90;;;;;;5013750;28;20033;-76
2022/06/06 02:51:34;;;;;;;4.32;3.90;;;14.10;99.90;;;;;;5018486;28;20084;-76
2022/06/06 02:54:01;;;;;;;6.95;3.80;;;14.10;99.90;;;;;;5022367;28;20026;-76
2022/06/06 02:56:27;;;;;;;5.93;4.10;;;14.20;99.90;;;;;;5027881;28;20392;-75
2022/06/06 02:58:55;;;;;;;4.38;3.97;;;14.10;99.90;;;;;;5025592;28;20097;-75
2022/06/06 03:01:20;;;;;;;5.00;3.88;;;14.30;99.90;;;;;;5020302;28;20040;-76
2022/06/06 03:03:46;;;;;;;5.05;4.28;;;14.30;99.90;;;;;;5023053;28;20033;-76
2022/06/06 03:06:25;;;;;;;4.97;4.43;;;14.40;99.90;;;;;;5017398;28;20021;-75
2022/06/06 03:09:02;;;;;;;7.78;4.05;;;14.20;99.90;;;;;;5021838;28;20038;-77
2022/06/06 03:11:39;;;;;;;4.90;4.45;;;14.20;99.90;;;;;;5008996;28;20032;-76
2022/06/06 03:14:32;;;;;;;7.18;4.57;;;14.00;99.90;;;;;;5021419;28;20384;-76
2022/06/06 03:22:44;;;;;;;5.90;5.22;;;14.00;99.90;;;;;;5021233;28;20032;-76
2022/06/06 03:25:09;;;;;;;5.60;4.90;;;14.00;99.90;;;;;;5020563;28;20029;-75
2022/06/06 03:27:43;;;;;;;6.43;5.20;;;14.00;99.90;;;;;;5027318;28;20157;-76
2022/06/06 03:30:25;;;;;;;6.00;5.00;;;13.90;99.90;;;;;;5025830;28;20022;-77
2022/06/06 03:33:09;;;;;;;5.75;5.25;;;14.00;99.90;;;;;;5012992;28;20033;-75
2022/06/06 03:35:52;;;;;;;6.45;5.85;;;14.00;99.90;;;;;;5018633;28;20029;-76
2022/06/06 03:38:33;;;;;;;5.97;5.10;;;14.20;99.90;;;;;;5033658;28;20032;-76
2022/06/06 03:41:12;;;;;;;6.85;5.25;;;14.10;99.90;;;;;;5021264;28;20037;-76
2022/06/06 03:43:43;;;;;;;5.47;4.88;;;14.20;99.90;;;;;;5013868;28;20026;-76
2022/06/06 03:46:26;;;;;;;6.25;5.65;;;14.40;99.90;;;;;;5025339;28;20148;-75
2022/06/06 03:48:57;;;;;;;5.50;4.97;;;14.30;99.90;;;;;;5010009;28;20049;-75
2022/06/06 03:51:36;;;;;;;6.13;5.43;;;14.30;99.90;;;;;;5001983;28;20034;-75
2022/06/06 03:54:33;;;;;;;7.13;6.10;;;14.40;99.90;;;;;;5024634;28;20029;-77
2022/06/06 03:57:10;;;;;;;7.90;6.10;;;14.30;99.90;;;;;;5009341;28;20018;-76
2022/06/06 03:59:38;;;;;;;6.72;5.90;;;14.40;99.90;;;;;;5020128;28;20025;-76
2022/06/06 04:02:06;;;;;;;7.85;6.28;;;14.30;99.90;;;;;;5021423;28;20022;-76
2022/06/06 04:04:32;;;;;;;6.15;5.55;;;14.50;99.90;;;;;;5025565;28;20026;-76
2022/06/06 04:07:00;;;;;;;6.80;6.13;;;14.40;99.90;;;;;;5022641;28;20032;-75
2022/06/06 04:09:33;;;;;;;6.53;5.80;;;14.50;99.90;;;;;;5015626;28;20018;-75
2022/06/06 04:12:10;;;;;;;7.60;6.10;;;14.70;99.90;;;;;;5012919;28;20022;-76
2022/06/06 04:14:49;;;;;;;6.95;5.60;;;14.80;99.90;;;;;;5000249;28;20092;-76
2022/06/06 04:17:56;;;;;;;6.85;5.47;;;14.90;99.90;;;;;;5027617;28;20017;-77
2022/06/06 04:20:58;;;;;;;8.70;6.40;;;15.00;99.90;;;;;;5021035;28;20112;-78
2022/06/06 04:23:38;;;;;;;7.13;6.43;;;15.00;99.90;;;;;;5022258;28;20022;-76
2022/06/06 04:26:10;;;;;;;7.85;6.07;;;15.10;99.90;;;;;;5009690;28;20026;-76
2022/06/06 04:28:42;;;;;;;7.80;6.18;;;15.30;99.90;;;;;;5021086;28;20029;-78
2022/06/06 04:31:22;;;;;;;7.03;6.10;;;15.30;99.90;;;;;;5033628;28;20026;-76
2022/06/06 04:34:33;;;;;;;6.80;5.57;;;15.40;99.90;;;;;;5016167;28;20451;-77
2022/06/06 04:37:21;;;;;;;7.35;6.05;;;15.50;99.90;;;;;;4985686;28;20023;-75
2022/06/06 04:39:54;;;;;;;8.68;6.18;;;15.50;99.90;;;;;;4984996;28;20026;-77
2022/06/06 04:42:22;;;;;;;7.30;5.85;;;15.50;99.90;;;;;;5002551;28;20030;-77
2022/06/06 04:44:57;;;;;;;6.60;5.97;;;15.60;99.90;;;;;;5026069;28;20033;-76
2022/06/06 04:47:23;;;;;;;7.50;6.25;;;15.50;99.90;;;;;;5022074;28;20029;-77
2022/06/06 04:49:50;;;;;;;7.10;6.40;;;15.40;99.90;;;;;;5032503;28;20017;-76
2022/06/06 04:52:17;;;;;;;7.03;5.63;;;15.30;99.90;;;;;;5020550;28;20121;-76
2022/06/06 04:54:45;;;;;;;8.23;6.30;;;15.40;99.90;;;;;;5014498;28;20112;-74
2022/06/06 04:57:13;;;;;;;8.38;6.25;;;15.50;99.90;;;;;;5022270;28;20109;-76
2022/06/06 04:59:40;;;;;;;7.22;5.80;;;15.40;99.90;;;;;;5025895;28;20021;-75
2022/06/06 05:02:06;;;;;;;9.32;6.63;;;15.30;99.90;;;;;;5020917;28;20059;-77
2022/06/06 05:04:32;;;;;;;9.48;6.15;;;15.60;99.90;;;;;;5018722;28;20029;-76
2022/06/06 05:07:09;;;;;;;7.07;5.97;;;15.70;99.90;;;;;;5021812;28;20121;-77
2022/06/06 05:10:16;;;;;;;8.57;6.00;;;15.90;99.90;;;;;;5025511;28;20032;-77
2022/06/06 05:13:07;;;;;;;6.70;5.95;;;15.70;99.90;;;;;;5044422;28;20030;-73
2022/06/06 05:15:50;;;;;;;9.75;6.45;;;15.70;99.90;;;;;;5025610;28;20033;-76
2022/06/06 05:18:21;;;;;;;7.03;6.32;;;15.80;99.90;;;;;;5021688;28;20018;-76
2022/06/06 05:21:08;;;;;;;7.07;6.22;;;16.00;99.90;;;;;;5016602;28;20122;-76
2022/06/06 05:23:58;;;;;;;7.03;6.25;;;16.10;99.90;;;;;;5017780;28;20400;-76
2022/06/06 05:26:34;;;;;;;7.28;6.05;;;16.20;99.90;;;;;;5011602;28;20022;-75
2022/06/06 05:29:31;;;;;;;7.05;6.28;;;16.30;99.90;;;;;;5017388;28;20442;-76
2022/06/06 05:32:18;;;;;;;7.22;6.38;;;16.30;99.90;;;;;;5015971;28;20089;-76
2022/06/06 05:34:47;;;;;;;9.13;5.53;;;16.50;99.90;;;;;;5023606;28;20052;-76
2022/06/06 05:37:31;;;;;;;7.93;6.05;;;16.70;99.90;;;;;;5017252;28;20692;-76
2022/06/06 05:40:28;;;;;;;6.50;5.82;;;16.70;99.90;;;;;;5018349;28;20029;-76
2022/06/06 05:43:06;;;;;;;6.50;5.80;;;16.80;99.90;;;;;;5030392;28;20021;-72
2022/06/06 05:45:48;;;;;;;7.10;6.40;;;17.10;99.90;;;;;;5006423;28;20033;-73
2022/06/06 05:48:41;;;;;;;6.47;5.50;;;16.80;99.90;;;;;;5018457;28;20022;-76
2022/06/06 05:51:27;;;;;;;6.10;5.25;;;17.00;99.90;;;;;;5030481;28;20449;-76
2022/06/06 05:53:58;;;;;;;;;;;17.20;99.90;;;;;;5022191;28;20029;-75
2022/06/06 05:57:01;;;;;;;8.63;5.70;;;17.20;99.90;;;;;;5022392;28;19912;-76
2022/06/06 05:59:41;;;;;;;7.32;5.80;;;17.30;99.90;;;;;;5022424;28;20105;-76
2022/06/06 06:02:34;;;;;;;7.20;5.28;;;17.20;99.90;;;;;;5024043;28;20018;-75
2022/06/06 06:05:27;;;;;;;7.05;5.25;;;17.30;99.90;;;;;;5021432;28;20057;-76
2022/06/06 06:08:22;;;;;;;6.65;5.75;;;17.60;99.90;;;;;;5017438;28;20388;-76
2022/06/06 06:11:15;;;;;;;6.25;5.45;;;17.60;99.90;;;;;;5011593;28;20037;-77
2022/06/06 06:14:01;;;;;;;6.32;5.13;;;17.90;99.90;;;;;;5021314;28;20053;-76
2022/06/06 06:16:31;;;;;;;6.55;5.20;;;18.10;99.90;;;;;;5004981;28;20041;-76
2022/06/06 06:19:12;;;;;;;6.65;5.13;;;18.40;99.90;;;;;;5021910;28;20172;-76
2022/06/06 06:21:56;;;;;;;5.53;4.93;;;18.60;99.90;;;;;;5033465;28;20571;-75
2022/06/06 06:24:28;;;;;;;5.75;5.15;;;18.10;99.90;;;;;;5007788;28;20033;-75
2022/06/06 06:26:56;;;;;;;6.18;5.32;;;17.90;99.90;;;;;;5021624;28;20026;-75
2022/06/06 06:29:21;;;;;;;5.72;4.93;;;18.40;99.90;;;;;;5026290;28;20392;-76
2022/06/06 06:32:02;;;;;;;5.32;4.88;;;18.70;99.90;;;;;;5026290;28;20036;-76
2022/06/06 06:34:51;;;;;;;6.78;5.40;;;18.90;99.90;;;;;;5024270;28;20021;-76
2022/06/06 06:37:38;;;;;;;6.35;5.32;;;19.00;99.90;;;;;;5021758;28;20069;-76
2022/06/06 06:40:25;;;;;;;7.63;6.00;;;19.00;99.90;;;;;;5020943;28;20018;-76
2022/06/06 06:43:23;;;;;;;;;;;18.70;99.90;;;;;;5021973;28;20029;-76
2022/06/06 06:45:57;;;;;;;7.60;6.00;;;18.60;99.90;;;;;;4983374;28;19909;-76
2022/06/06 06:48:38;;;;;;;6.25;5.20;;;18.30;99.90;;;;;;5002386;28;20029;-76
2022/06/06 06:51:36;;;;;;;8.15;5.00;;;18.10;99.90;;;;;;5019535;28;20034;-75
2022/06/06 06:54:45;;;;;;;6.50;5.53;;;18.20;99.90;;;;;;5016685;28;20116;-76
2022/06/06 06:57:31;;;;;;;5.63;5.13;;;18.20;99.90;;;;;;5014438;28;20372;-76
2022/06/06 07:00:21;;;;;;;8.52;4.95;;;18.00;99.90;;;;;;5014885;28;20225;-75
2022/06/06 07:08:43;;;;;;;7.88;5.97;;;18.40;99.90;;;;;;5015644;28;20036;-76
2022/06/06 07:11:36;;;;;;;9.48;6.28;;;18.40;99.90;;;;;;5020477;28;20107;-76
2022/06/06 07:14:14;;;;;;;7.10;6.00;;;18.60;99.90;;;;;;5020849;28;20034;-76
2022/06/06 07:16:40;;;;;;;7.50;5.63;;;18.60;99.90;;;;;;5019212;28;20113;-75
2022/06/06 07:19:18;;;;;;;8.50;5.70;;;18.90;99.90;;;;;;5027557;28;20030;-76
2022/06/06 07:21:46;;;;;;;6.53;5.13;;;19.40;99.90;;;;;;5013526;28;20050;-74
2022/06/06 07:24:17;;;;;;;6.82;5.78;;;20.00;99.90;;;;;;5020307;28;20029;-75
2022/06/06 07:26:44;;;;;;;6.40;5.28;;;19.60;99.90;;;;;;5020399;28;20025;-76
2022/06/06 07:29:12;;;;;;;7.38;5.22;;;19.70;99.90;;;;;;5007457;28;20698;-75
2022/06/06 07:32:02;;;;;;;7.72;5.30;;;19.00;99.90;;;;;;5018322;28;20121;-76
2022/06/06 07:35:05;;;;;;;6.47;5.72;;;18.90;99.90;;;;;;5022383;28;20053;-75
2022/06/06 07:37:47;;;;;;;5.68;5.15;;;18.70;99.90;;;;;;5011077;28;20356;-75
2022/06/06 07:40:21;;;;;;;6.85;5.75;;;18.90;99.90;;;;;;5019818;28;20052;-76
2022/06/06 07:42:56;;;;;;;7.68;6.00;;;18.90;99.90;;;;;;5022350;28;20025;-76
2022/06/06 07:45:30;;;;;;;6.07;5.43;;;18.90;99.90;;;;;;5026949;28;20495;-76
2022/06/06 07:48:14;;;;;;;8.75;6.10;;;19.10;99.90;;;;;;5026974;28;20025;-76
2022/06/06 07:51:08;;;;;;;6.47;5.45;;;19.10;99.90;;;;;;5044780;28;20034;-76
2022/06/06 07:53:52;;;;;;;5.88;5.28;;;19.10;99.90;;;;;;5001160;28;20061;-76
2022/06/06 07:56:52;;;;;;;7.43;6.18;;;19.20;99.90;;;;;;5026707;28;20388;-76
2022/06/06 07:59:24;;;;;;;6.03;5.30;;;19.50;99.90;;;;;;4999727;28;20034;-76
2022/06/06 08:02:27;;;;;;;7.07;5.95;;;19.50;99.90;;;;;;5024235;28;20379;-75
2022/06/06 08:05:32;;;;;;;7.63;5.45;;;19.40;99.90;;;;;;4993897;28;20404;-76
2022/06/06 08:08:37;;;;;;;5.80;5.00;;;19.80;99.90;;;;;;5025737;28;20030;-76
2022/06/06 08:11:13;;;;;;;7.03;5.13;;;20.30;99.90;;;;;;5025855;28;20018;-77
2022/06/06 08:14:02;;;;;;;8.52;5.30;;;20.50;99.90;;;;;;5025078;28;20044;-76
2022/06/06 08:16:48;;;;;;;8.93;5.07;;;20.00;99.90;;;;;;5009957;28;20530;-77
2022/06/06 08:19:40;;;;;;;7.57;5.30;;;20.20;99.90;;;;;;5019623;28;20061;-76
2022/06/06 08:22:08;;;;;;;6.25;4.55;;;19.80;99.90;;;;;;5019247;28;20061;-76
2022/06/06 08:24:38;;;;;;;6.55;4.47;;;20.90;99.90;;;;;;5022760;28;20026;-76
2022/06/06 08:27:07;;;;;;;4.70;3.85;;;21.30;99.90;;;;;;5026207;28;20041;-76
2022/06/06 08:29:38;;;;;;;5.40;4.57;;;21.40;99.90;;;;;;5022849;28;20014;-76
2022/06/06 08:32:05;;;;;;;6.70;4.85;;;21.30;99.90;;;;;;5028270;28;20025;-77
2022/06/06 08:34:33;;;;;;;5.85;4.15;;;21.40;99.90;;;;;;5022103;28;20125;-76
2022/06/06 08:37:24;;;;;;;7.35;4.60;;;20.80;99.90;;;;;;5017750;28;20026;-76
2022/06/06 08:40:16;;;;;;;6.15;4.53;;;21.10;99.90;;;;;;5019361;28;20029;-76
2022/06/06 08:42:56;;;;;;;5.53;4.35;;;21.40;99.90;;;;;;5021276;28;20645;-76
2022/06/06 08:45:44;;;;;;;6.97;4.20;;;20.70;99.90;;;;;;4993205;28;20034;-76
2022/06/06 08:48:17;;;;;;;8.07;4.38;;;20.30;99.90;;;;;;5006115;28;20022;-76
2022/06/06 08:51:15;;;;;;;6.15;4.10;;;20.50;99.90;;;;;;5021413;28;20120;-76
2022/06/06 08:54:29;;;;;;;5.05;4.45;;;20.30;99.90;;;;;;5009048;28;20029;-76
2022/06/06 08:57:21;;;;;;;5.50;4.28;;;20.40;99.90;;;;;;4955946;28;20065;-76
2022/06/06 09:00:45;;;;;;;5.32;4.75;;;20.60;99.90;;;;;;5018767;28;20092;-77
2022/06/06 09:03:30;;;;;;;6.82;4.53;;;20.60;99.90;;;;;;4964872;28;20035;-76
2022/06/06 09:06:10;;;;;;;5.63;4.13;;;21.20;99.90;;;;;;5024152;28;20031;-76
2022/06/06 09:09:12;;;;;;;8.73;4.30;;;21.30;99.90;;;;;;5019444;28;20033;-76
2022/06/06 09:12:07;;;;;;;4.97;4.43;;;20.80;99.90;;;;;;5010788;28;20085;-76
2022/06/06 09:14:54;;;;;;;5.75;4.38;;;20.70;99.90;;;;;;5005079;28;20167;-76
2022/06/06 09:17:25;;;;;;;;;;;20.60;99.90;;;;;;5017970;28;20018;-76
2022/06/06 09:20:12;;;;;;;5.88;4.28;;;20.40;99.90;;;;;;5021350;28;19906;-76
2022/06/06 09:23:15;;;;;;;5.97;4.88;;;20.70;99.90;;;;;;5004444;28;20048;-76
2022/06/06 09:26:21;;;;;;;5.38;4.45;;;21.00;99.90;;;;;;5020940;28;20061;-76
2022/06/06 09:29:15;;;;;;;6.70;4.05;;;21.30;99.90;;;;;;5017229;28;20037;-76
2022/06/06 09:32:07;;;;;;;6.07;4.18;;;21.60;99.90;;;;;;5025228;28;20343;-76
2022/06/06 09:34:53;;;;;;;5.38;3.97;;;21.70;99.90;;;;;;5022433;28;20059;-77
2022/06/06 09:37:43;;;;;;;6.82;4.15;;;21.40;99.90;;;;;;5007494;28;20104;-77
2022/06/06 09:40:11;;;;;;;5.13;4.10;;;21.30;99.90;;;;;;5018246;28;20028;-76
2022/06/06 09:43:18;;;;;;;4.93;3.65;;;21.30;99.90;;;;;;5019120;28;20032;-76
2022/06/06 09:46:01;;;;;;;3.90;3.50;;;20.70;99.90;;;;;;5012287;28;20028;-76
2022/06/06 09:48:51;;;;;;;5.45;3.67;;;21.00;99.90;;;;;;5018276;28;20036;-76
2022/06/06 09:51:34;;;;;;;4.53;3.95;;;21.10;99.90;;;;;;5017361;28;20034;-76
2022/06/06 09:59:39;;;;;;;4.95;3.85;;;21.20;99.90;;;;;;5014800;28;20388;-78
2022/06/06 10:02:50;;;;;;;3.47;3.17;;;21.50;99.90;;;;;;5027104;28;20494;-77
2022/06/06 10:05:35;;;;;;;5.35;3.50;;;21.40;99.90;;;;;;5011445;28;20116;-77
2022/06/06 10:08:34;;;;;;;5.38;3.67;;;21.00;99.90;;;;;;5018093;28;20021;-76
2022/06/06 10:11:30;;;;;;;5.28;3.63;;;21.30;99.90;;;;;;5017558;28;20032;-76
2022/06/06 10:14:27;;;;;;;4.55;3.65;;;21.60;99.90;;;;;;5018216;28;20022;-77
2022/06/06 10:17:15;;;;;;;3.53;3.22;;;21.50;99.90;;;;;;5019281;28;20026;-77
2022/06/06 10:20:25;;;;;;;7.32;3.30;;;21.30;99.90;;;;;;5009195;28;20483;-76
2022/06/06 10:22:59;;;;;;;3.72;3.25;;;20.90;99.90;;;;;;5007830;28;20035;-77
2022/06/06 10:25:40;;;;;;;3.40;3.10;;;20.80;99.90;;;;;;5018146;28;20034;-76
2022/06/06 10:28:20;;;;;;;5.90;3.45;;;20.70;99.90;;;;;;5020066;28;20558;-76
2022/06/06 10:30:53;;;;;;;3.85;3.45;;;20.90;99.90;;;;;;5004401;28;20030;-77
2022/06/06 10:33:44;;;;;;;4.50;3.25;;;21.10;99.90;;;;;;5016569;28;20113;-76
2022/06/06 10:36:29;;;;;;;4.00;3.60;;;22.30;99.90;;;;;;5017370;28;20408;-77
2022/06/06 10:39:16;;;;;;;4.88;3.38;;;22.40;99.90;;;;;;5005909;28;20014;-77
2022/06/06 10:42:00;;;;;;;;;;;22.30;99.90;;;;;;5026232;28;20109;-76
2022/06/06 10:45:17;;;;;;;4.18;3.67;;;22.20;99.90;;;;;;5018482;28;19964;-77
2022/06/06 10:48:16;;;;;;;6.38;3.65;;;22.90;99.90;;;;;;4986986;28;20041;-76
2022/06/06 10:54:02;;;;;;;3.85;3.40;;;22.80;99.90;;;;;;5009266;28;20064;-76
2022/06/06 10:56:58;;;;;;;4.55;3.00;;;22.90;99.90;;;;;;5021429;28;20490;-76
2022/06/06 10:59:54;;;;;;;6.40;3.15;;;22.60;99.90;;;;;;5019826;28;20037;-77
2022/06/06 11:02:38;;;;;;;5.20;3.55;;;22.80;99.90;;;;;;5032794;28;20072;-76
2022/06/06 11:05:24;;;;;;;4.50;3.20;;;22.80;99.90;;;;;;5034541;28;20546;-76
2022/06/06 11:08:14;;;;;;;7.50;3.58;;;23.20;99.90;;;;;;5021100;28;20036;-77
2022/06/06 11:11:21;;;;;;;3.70;3.40;;;23.80;99.90;;;;;;5018116;28;20148;-77
2022/06/06 11:14:17;;;;;;;4.97;3.10;;;24.00;99.90;;;;;;5027755;28;20533;-74
2022/06/06 11:17:08;;;;;;;8.52;3.85;;;24.40;99.90;;;;;;5018520;28;20014;-76
2022/06/06 11:19:49;;;;;;;3.38;3.00;;;24.20;99.90;;;;;;5009148;28;20559;-75
2022/06/06 11:22:43;;;;;;;5.90;3.00;;;24.20;99.90;;;;;;5020382;28;20034;-77
2022/06/06 11:25:12;;;;;;;4.65;3.40;;;23.30;99.90;;;;;;5019901;28;20030;-76
2022/06/06 11:28:05;;;;;;;3.55;2.90;;;23.20;99.90;;;;;;5025548;28;20040;-77
2022/06/06 11:31:10;;;;;;;4.00;3.28;;;23.20;99.90;;;;;;5025938;28;20021;-77
2022/06/06 11:33:44;;;;;;;3.90;3.25;;;23.30;99.90;;;;;;5027746;28;20076;-77
2022/06/06 11:36:49;;;;;;;4.95;3.13;;;24.00;99.90;;;;;;5025085;28;20029;-76
2022/06/06 11:39:39;;;;;;;5.55;3.00;;;23.60;99.90;;;;;;4983101;28;20392;-75
2022/06/06 11:42:23;;;;;;;3.03;2.72;;;23.60;99.90;;;;;;5020119;28;20014;-76
2022/06/06 11:45:16;;;;;;;3.22;2.90;;;23.70;99.90;;;;;;5018319;28;20034;-76
2022/06/06 11:47:53;;;;;;;3.10;2.80;;;23.90;99.90;;;;;;5049403;28;20021;-77
2022/06/06 11:50:49;;;;;;;3.80;2.55;;;24.90;99.90;;;;;;5000995;28;20484;-77
2022/06/06 11:53:26;;;;;;;3.42;2.75;;;23.90;99.90;;;;;;5022737;28;20045;-77
2022/06/06 11:56:29;;;;;;;2.85;2.60;;;23.70;99.90;;;;;;5021846;28;20026;-77
2022/06/06 11:59:14;;;;;;;2.45;2.08;;;23.20;99.90;;;;;;5024112;28;20057;-77
2022/06/06 12:01:49;;;;;;;3.22;2.30;;;22.60;99.90;;;;;;5015872;28;20054;-76
2022/06/06 12:04:34;;;;;;;3.83;2.13;;;22.60;99.90;;;;;;5026904;28;20022;-76
2022/06/06 12:07:02;;;;;;;2.60;2.40;;;23.20;99.90;;;;;;5023788;28;20084;-76
2022/06/06 12:09:48;;;;;;;2.75;2.25;;;24.20;99.90;;;;;;5031050;28;20025;-76
2022/06/06 12:12:37;;;;;;;6.65;2.20;;;24.30;99.90;;;;;;5028335;28;20539;-76
2022/06/06 12:15:41;;;;;;;3.35;2.60;;;24.20;99.90;;;;;;5034148;28;20041;-76
2022/06/06 12:18:44;;;;;;;2.60;2.40;;;23.60;99.90;;;;;;5018359;28;20018;-77
2022/06/06 12:21:48;;;;;;;1.85;1.70;;;24.20;99.90;;;;;;5007538;28;20025;-77
2022/06/06 12:24:44;;;;;;;3.35;1.88;;;24.50;99.90;;;;;;5026142;28;20022;-77
2022/06/06 12:27:24;;;;;;;3.80;2.20;;;24.40;99.90;;;;;;5027026;28;20026;-77
2022/06/06 12:30:23;;;;;;;2.50;2.30;;;24.70;99.90;;;;;;5025184;28;20490;-76
2022/06/06 12:32:58;;;;;;;3.15;1.90;;;25.30;99.90;;;;;;5013746;28;20025;-77
2022/06/06 12:35:42;;;;;;;2.17;1.85;;;25.00;99.90;;;;;;5019683;28;20056;-76
2022/06/06 12:38:51;;;;;;;2.33;1.70;;;24.90;99.90;;;;;;5018497;28;20033;-77
2022/06/06 12:41:58;;;;;;;4.15;2.05;;;24.80;99.90;;;;;;5020038;28;20108;-76
2022/06/06 12:44:35;;;;;;;3.83;2.10;;;25.00;99.90;;;;;;5015328;28;20141;-75
2022/06/06 12:47:49;;;;;;;3.05;2.10;;;25.30;99.90;;;;;;5019333;28;20108;-76
2022/06/06 12:50:26;;;;;;;2.30;2.10;;;24.80;99.90;;;;;;4988901;28;20041;-76
2022/06/06 12:53:19;;;;;;;2.78;1.70;;;24.90;99.90;;;;;;5012662;28;20053;-77
2022/06/06 12:58:37;;;;;;;4.50;2.08;;;25.00;99.90;;;;;;5006203;28;20075;-77
2022/06/06 13:04:25;;;;;;;1.98;1.75;;;25.40;99.90;;;;;;5019627;28;20171;-76
2022/06/06 13:07:18;;;;;;;1.90;1.73;;;25.70;99.90;;;;;;5010285;28;20402;-76
2022/06/06 13:09:50;;;;;;;4.40;1.70;;;25.70;99.90;;;;;;5017521;28;20192;-76
2022/06/06 13:12:41;;;;;;;2.05;1.83;;;25.00;99.90;;;;;;5017744;28;20037;-76
2022/06/06 13:15:14;;;;;;;2.47;1.70;;;25.10;99.90;;;;;;5010980;28;20450;-77
2022/06/06 13:18:03;;;;;;;3.17;1.45;;;24.90;99.90;;;;;;5024351;28;20527;-77
2022/06/06 13:20:49;;;;;;;3.38;1.80;;;24.00;99.90;;;;;;4995501;28;20487;-77
2022/06/06 13:23:46;;;;;;;3.17;1.65;;;23.30;99.90;;;;;;5021472;28;20079;-76
2022/06/06 13:26:24;;;;;;;;;;;23.10;99.90;;;;;;5000429;28;20030;-76
2022/06/06 13:28:52;;;;;;;2.70;2.00;;;22.90;99.90;;;;;;5040589;28;19905;-76
2022/06/06 13:31:37;;;;;;;2.28;1.80;;;21.60;99.90;;;;;;5022017;28;20053;-77
2022/06/06 13:34:15;;;;;;;6.00;2.05;;;21.60;99.90;;;;;;5024124;28;20181;-77
2022/06/06 13:36:44;;;;;;;3.78;1.95;;;21.50;99.90;;;;;;5025311;28;20029;-76
2022/06/06 13:39:37;;;;;;;2.47;1.90;;;21.30;99.90;;;;;;5020039;28;20029;-76
2022/06/06 13:42:42;;;;;;;2.22;1.77;;;21.10;99.90;;;;;;5017011;28;20052;-77
2022/06/06 13:45:45;;;;;;;2.47;2.10;;;21.40;99.90;;;;;;4982377;28;20129;-76
2022/06/06 13:48:49;;;;;;;2.47;1.90;;;21.40;99.90;;;;;;5016937;28;20033;-76
2022/06/06 13:51:23;;;;;;;2.17;1.98;;;21.60;99.90;;;;;;5006157;28;20042;-76
2022/06/06 13:54:24;;;;;;;3.72;2.08;;;21.80;99.90;;;;;;5021003;28;20056;-76
2022/06/06 13:57:13;;;;;;;2.63;1.90;;;22.10;99.90;;;;;;5007157;28;20022;-76
2022/06/06 13:59:57;;;;;;;2.70;1.80;;;22.50;99.90;;;;;;5014160;28;20022;-76
2022/06/06 14:02:22;;;;;;;2.58;2.10;;;21.80;99.90;;;;;;5022985;28;20079;-77
2022/06/06 14:05:10;;;;;;;2.40;2.20;;;21.90;99.90;;;;;;5018214;28;20029;-76
2022/06/06 14:08:13;;;;;;;2.17;1.92;;;22.70;99.90;;;;;;5018295;28;20064;-76
2022/06/06 14:10:53;;;;;;;3.33;2.30;;;23.00;99.90;;;;;;5007533;28;20045;-76
2022/06/06 14:13:45;;;;;;;2.60;2.03;;;23.50;99.90;;;;;;5021269;28;20041;-76
2022/06/06 14:16:16;;;;;;;2.30;2.10;;;24.80;99.90;;;;;;5008176;28;20104;-77
2022/06/06 14:18:42;;;;;;;4.13;2.05;;;26.00;99.90;;;;;;5022003;28;20383;-77
2022/06/06 14:21:07;;;;;;;2.55;2.00;;;24.90;99.90;;;;;;5026788;28;20097;-76
2022/06/06 14:23:35;;;;;;;3.13;2.20;;;24.90;99.90;;;;;;5029585;28;20472;-76
2022/06/06 14:26:13;;;;;;;3.47;2.00;;;24.40;99.90;;;;;;5035084;28;20391;-76
2022/06/06 14:28:41;;;;;;;3.05;1.83;;;24.00;99.90;;;;;;5021606;28;20041;-76